Time;durP1;ratioP1;P1;durP2;ratioP2;P2;SDS_P1;SDS_P2;PMS_P1;PMS_P2;Temp;Humidity;BMP_temperature;BMP_pressure;BME280_temperature;BME280_humidity;BME280_pressure;Samples;Min_cycle;Max_cycle;Signal;HPM_P1;HPM_P2
2023/04/14 00:02:08;;;;;;;58.60;37.50;;;;;;;;;;107613;1249;22550;-79
2023/04/14 00:04:34;;;;;;;59.60;39.10;;;;;;;;;;107648;1248;22526;-79
2023/04/14 00:07:00;;;;;;;57.80;37.30;;;;;;;;;;107654;1248;22751;-78
2023/04/14 00:09:27;;;;;;;64.80;42.70;;;;;;;;;;107707;1249;22518;-79
2023/04/14 00:11:53;;;;;;;70.20;46.70;;;;;;;;;;108926;1250;27254;-79
2023/04/14 00:14:20;;;;;;;67.10;44.70;;;;;;;;;;107647;1248;24200;-79
2023/04/14 00:16:46;;;;;;;64.20;40.90;;;;;;;;;;107683;1248;22527;-79
2023/04/14 00:19:12;;;;;;;63.10;39.70;;;;;;;;;;107645;1248;25207;-79
2023/04/14 00:21:39;;;;;;;62.90;39.00;;;;;;;;;;107666;1248;25315;-79
2023/04/14 00:24:05;;;;;;;56.90;36.40;;;;;;;;;;107639;1248;23774;-79
2023/04/14 00:26:32;;;;;;;63.00;37.60;;;;;;;;;;107661;1248;23815;-79
2023/04/14 00:28:58;;;;;;;53.90;35.10;;;;;;;;;;107652;1252;22546;-78
2023/04/14 00:31:24;;;;;;;57.20;37.30;;;;;;;;;;107678;1248;25275;-79
2023/04/14 00:33:51;;;;;;;58.10;36.70;;;;;;;;;;107626;1250;22553;-79
2023/04/14 00:36:17;;;;;;;56.40;35.80;;;;;;;;;;107653;1249;22574;-79
2023/04/14 00:38:43;;;;;;;57.40;36.60;;;;;;;;;;107688;1252;25263;-78
2023/04/14 00:41:10;;;;;;;63.70;42.50;;;;;;;;;;107686;1248;24343;-78
2023/04/14 00:43:36;;;;;;;57.80;36.50;;;;;;;;;;107666;1250;26499;-78
2023/04/14 00:46:02;;;;;;;72.50;47.30;;;;;;;;;;107634;1248;22570;-78
2023/04/14 00:48:28;;;;;;;68.60;39.30;;;;;;;;;;107642;1251;24314;-77
2023/04/14 00:50:55;;;;;;;58.50;36.60;;;;;;;;;;107842;1250;22471;-78
2023/04/14 00:53:21;;;;;;;59.90;36.80;;;;;;;;;;107605;1248;44271;-78
2023/04/14 00:55:47;;;;;;;56.70;35.40;;;;;;;;;;107635;1252;22531;-78
2023/04/14 00:58:15;;;;;;;52.80;35.40;;;;;;;;;;107678;1248;22521;-78
2023/04/14 01:00:41;;;;;;;53.70;36.40;;;;;;;;;;107695;1249;22522;-78
2023/04/14 01:03:07;;;;;;;57.80;36.60;;;;;;;;;;107794;1252;23131;-79
2023/04/14 01:05:34;;;;;;;51.30;34.80;;;;;;;;;;107813;1247;22524;-78
2023/04/14 01:08:01;;;;;;;53.10;36.70;;;;;;;;;;107830;1247;25281;-79
2023/04/14 01:10:29;;;;;;;56.40;35.50;;;;;;;;;;107764;1248;22516;-78
2023/04/14 01:13:07;;;;;;;56.30;37.20;;;;;;;;;;107840;1247;24081;-79
2023/04/14 01:15:46;;;;;;;52.00;34.60;;;;;;;;;;107802;1248;22527;-79
2023/04/14 01:18:12;;;;;;;;;;;;;;;;;;111103;1247;22373;-79
2023/04/14 01:20:38;;;;;;;49.80;30.10;;;;;;;;;;111010;1248;22181;-79
2023/04/14 01:23:06;;;;;;;49.60;32.60;;;;;;;;;;111051;1247;22376;-79
2023/04/14 01:25:38;;;;;;;51.80;32.90;;;;;;;;;;110876;1247;22939;-78
2023/04/14 01:28:07;;;;;;;51.70;33.60;;;;;;;;;;110998;1248;22492;-79
2023/04/14 01:30:35;;;;;;;50.90;32.60;;;;;;;;;;110975;1248;22268;-79
2023/04/14 01:33:03;;;;;;;49.00;32.10;;;;;;;;;;109090;1248;22527;-80
2023/04/14 01:35:33;;;;;;;50.70;33.10;;;;;;;;;;107639;1250;22521;-78
2023/04/14 01:38:03;;;;;;;61.70;35.40;;;;;;;;;;107732;1250;23178;-78
2023/04/14 01:40:29;;;;;;;54.90;36.70;;;;;;;;;;110977;1249;22421;-79
2023/04/14 01:42:58;;;;;;;61.10;38.70;;;;;;;;;;110922;1249;23076;-80
2023/04/14 01:45:25;;;;;;;55.70;34.60;;;;;;;;;;110972;1249;22453;-79
2023/04/14 01:47:51;;;;;;;48.10;32.60;;;;;;;;;;110937;1249;22359;-80
2023/04/14 01:50:18;;;;;;;48.90;33.90;;;;;;;;;;110938;1248;22863;-80
2023/04/14 01:52:46;;;;;;;49.80;33.30;;;;;;;;;;109367;1248;24187;-80
2023/04/14 01:55:14;;;;;;;46.30;30.70;;;;;;;;;;110987;1248;22482;-78
2023/04/14 01:57:41;;;;;;;44.90;30.70;;;;;;;;;;110863;1249;22175;-78
2023/04/14 02:00:07;;;;;;;59.50;39.80;;;;;;;;;;110727;1249;159568;-78
2023/04/14 02:02:34;;;;;;;53.30;35.50;;;;;;;;;;110997;1248;22276;-79
2023/04/14 02:05:00;;;;;;;45.00;29.50;;;;;;;;;;109625;1249;22640;-80
2023/04/14 02:07:27;;;;;;;49.80;31.70;;;;;;;;;;107599;1250;24333;-79
2023/04/14 02:09:53;;;;;;;45.10;29.80;;;;;;;;;;108195;1248;25243;-80
2023/04/14 02:12:19;;;;;;;50.90;32.60;;;;;;;;;;108169;1249;23837;-79
2023/04/14 02:14:46;;;;;;;53.70;34.10;;;;;;;;;;108083;1250;25586;-80
2023/04/14 02:17:12;;;;;;;61.40;39.40;;;;;;;;;;108180;1248;22515;-79
2023/04/14 02:19:39;;;;;;;60.10;37.20;;;;;;;;;;107680;1252;24167;-79
2023/04/14 02:22:05;;;;;;;61.90;38.20;;;;;;;;;;107570;1249;22577;-79
2023/04/14 02:24:31;;;;;;;56.80;37.30;;;;;;;;;;107667;1249;25400;-79
2023/04/14 02:27:03;;;;;;;62.20;39.40;;;;;;;;;;107620;1250;25377;-80
2023/04/14 02:29:29;;;;;;;63.60;40.70;;;;;;;;;;107639;1250;22526;-80
2023/04/14 02:31:57;;;;;;;63.10;41.10;;;;;;;;;;107750;1248;22521;-79
2023/04/14 02:34:24;;;;;;;58.80;36.70;;;;;;;;;;107773;1248;25363;-80
2023/04/14 02:36:54;;;;;;;56.70;36.30;;;;;;;;;;107633;1250;23259;-79
2023/04/14 02:39:27;;;;;;;60.10;38.60;;;;;;;;;;107660;1248;23754;-79
2023/04/14 02:41:55;;;;;;;60.50;39.40;;;;;;;;;;110970;1248;22194;-80
2023/04/14 02:44:23;;;;;;;61.10;37.10;;;;;;;;;;110988;1248;22218;-79
2023/04/14 02:47:02;;;;;;;64.80;42.70;;;;;;;;;;110229;1248;22275;-80
2023/04/14 02:49:30;;;;;;;64.80;42.50;;;;;;;;;;110977;1248;22344;-80
2023/04/14 02:51:57;;;;;;;70.10;43.80;;;;;;;;;;110911;1248;22405;-80
2023/04/14 02:54:23;;;;;;;59.50;38.40;;;;;;;;;;110981;1248;22252;-81
2023/04/14 02:56:49;;;;;;;61.70;34.70;;;;;;;;;;110868;1249;22168;-80
2023/04/14 02:59:16;;;;;;;69.90;41.20;;;;;;;;;;107927;1250;25318;-80
2023/04/14 03:01:42;;;;;;;82.30;46.50;;;;;;;;;;107596;1248;22569;-79
2023/04/14 03:04:08;;;;;;;78.30;45.80;;;;;;;;;;107673;1250;22525;-79
2023/04/14 03:06:35;;;;;;;72.40;44.60;;;;;;;;;;107625;1253;25487;-80
2023/04/14 03:09:02;;;;;;;69.50;33.90;;;;;;;;;;107674;1249;24173;-79
2023/04/14 03:11:28;;;;;;;69.90;33.30;;;;;;;;;;107698;1250;26340;-80
2023/04/14 03:13:55;;;;;;;73.50;28.70;;;;;;;;;;107638;1250;22531;-80
2023/04/14 03:16:21;;;;;;;57.50;28.20;;;;;;;;;;107668;1248;24099;-79
2023/04/14 03:18:48;;;;;;;59.80;33.20;;;;;;;;;;107609;1250;22560;-79
2023/04/14 03:21:15;;;;;;;55.30;33.10;;;;;;;;;;107667;1250;22515;-79
2023/04/14 03:23:41;;;;;;;58.80;32.40;;;;;;;;;;107674;1250;25341;-79
2023/04/14 03:26:08;;;;;;;60.70;34.40;;;;;;;;;;107649;1250;22525;-80
2023/04/14 03:28:35;;;;;;;66.20;38.80;;;;;;;;;;107649;1249;22648;-79
2023/04/14 03:31:03;;;;;;;55.20;33.30;;;;;;;;;;107676;1252;25489;-79
2023/04/14 03:33:29;;;;;;;57.50;29.60;;;;;;;;;;107781;1250;22536;-79
2023/04/14 03:35:56;;;;;;;57.20;29.20;;;;;;;;;;107654;1249;22533;-80
2023/04/14 03:38:25;;;;;;;66.20;31.00;;;;;;;;;;107684;1252;23277;-79
2023/04/14 03:40:52;;;;;;;;;;;;;;;;;;109193;1250;25355;-79
2023/04/14 03:43:21;;;;;;;71.80;34.50;;;;;;;;;;107718;1249;24180;-80
2023/04/14 03:45:48;;;;;;;;;;;;;;;;;;107678;1249;25475;-80
2023/04/14 03:48:16;;;;;;;61.10;29.00;;;;;;;;;;107644;1248;25378;-79
2023/04/14 03:50:44;;;;;;;67.40;37.50;;;;;;;;;;107696;1250;25447;-80
2023/04/14 03:53:11;;;;;;;63.70;31.10;;;;;;;;;;107600;1249;24891;-80
2023/04/14 03:55:37;;;;;;;56.80;29.80;;;;;;;;;;107637;1252;25500;-80
2023/04/14 03:58:04;;;;;;;60.30;31.20;;;;;;;;;;107939;1249;22598;-79
2023/04/14 04:00:30;;;;;;;59.90;34.90;;;;;;;;;;107616;1250;22549;-80
2023/04/14 04:02:57;;;;;;;62.50;34.40;;;;;;;;;;107803;1247;22507;-79
2023/04/14 04:05:23;;;;;;;63.60;33.80;;;;;;;;;;107723;1252;22569;-79
2023/04/14 04:07:49;;;;;;;52.40;27.70;;;;;;;;;;107660;1250;23443;-79
2023/04/14 04:10:16;;;;;;;60.10;32.10;;;;;;;;;;107612;1250;24309;-81
2023/04/14 04:12:42;;;;;;;65.10;32.00;;;;;;;;;;107612;1250;23576;-79
2023/04/14 04:15:09;;;;;;;69.90;37.50;;;;;;;;;;107684;1253;25272;-81
2023/04/14 04:17:36;;;;;;;73.80;40.30;;;;;;;;;;107768;1248;23773;-80
2023/04/14 04:20:05;;;;;;;71.30;33.60;;;;;;;;;;107604;1249;22646;-80
2023/04/14 04:22:32;;;;;;;64.90;33.00;;;;;;;;;;107578;1253;22531;-80
2023/04/14 04:24:59;;;;;;;69.60;37.00;;;;;;;;;;108096;1254;25268;-80
2023/04/14 04:27:26;;;;;;;49.60;28.20;;;;;;;;;;108128;1248;22766;-80
2023/04/14 04:29:52;;;;;;;49.50;28.20;;;;;;;;;;108151;1248;23280;-79
2023/04/14 04:32:19;;;;;;;60.10;32.40;;;;;;;;;;108126;1249;22514;-80
2023/04/14 04:34:46;;;;;;;63.00;36.20;;;;;;;;;;108347;1251;23196;-80
2023/04/14 04:37:13;;;;;;;67.50;35.70;;;;;;;;;;108200;1248;22996;-79
2023/04/14 04:39:39;;;;;;;64.10;34.10;;;;;;;;;;108142;1250;24184;-80
2023/04/14 04:42:05;;;;;;;46.10;27.20;;;;;;;;;;108457;1250;23213;-79
2023/04/14 04:44:32;;;;;;;51.60;30.10;;;;;;;;;;108375;1250;22519;-79
2023/04/14 04:46:59;;;;;;;49.00;29.00;;;;;;;;;;108217;1250;22538;-80
2023/04/14 04:49:25;;;;;;;41.80;25.50;;;;;;;;;;108181;1250;22522;-79
2023/04/14 04:51:51;;;;;;;34.70;22.20;;;;;;;;;;108194;1249;22518;-79
2023/04/14 04:54:18;;;;;;;44.30;26.30;;;;;;;;;;108211;1253;24700;-80
2023/04/14 04:56:45;;;;;;;40.40;24.20;;;;;;;;;;108186;1250;22529;-79
2023/04/14 04:59:11;;;;;;;49.30;28.20;;;;;;;;;;108012;1249;23243;-80
2023/04/14 05:01:37;;;;;;;45.50;26.00;;;;;;;;;;108206;1248;26265;-80
2023/04/14 05:04:04;;;;;;;40.40;23.50;;;;;;;;;;108192;1250;24359;-79
2023/04/14 05:06:33;;;;;;;41.60;23.60;;;;;;;;;;108146;1250;25447;-79
2023/04/14 05:08:59;;;;;;;39.70;23.80;;;;;;;;;;108091;1248;22592;-80
2023/04/14 05:11:26;;;;;;;41.80;24.60;;;;;;;;;;108118;1250;25221;-79
2023/04/14 05:13:52;;;;;;;41.00;25.00;;;;;;;;;;108104;1248;23246;-79
2023/04/14 05:16:19;;;;;;;42.60;25.00;;;;;;;;;;108207;1248;22632;-79
2023/04/14 05:18:45;;;;;;;48.50;31.20;;;;;;;;;;108485;1250;26256;-80
2023/04/14 05:21:12;;;;;;;64.80;34.20;;;;;;;;;;108543;1248;22730;-80
2023/04/14 05:23:39;;;;;;;94.00;45.20;;;;;;;;;;108872;1248;22534;-80
2023/04/14 05:26:05;;;;;;;177.20;69.20;;;;;;;;;;109005;1248;23400;-77
2023/04/14 05:28:31;;;;;;;199.10;79.30;;;;;;;;;;108217;1247;23662;-77
2023/04/14 05:30:58;;;;;;;175.10;72.70;;;;;;;;;;108189;1249;25850;-78
2023/04/14 05:33:24;;;;;;;160.20;69.80;;;;;;;;;;108240;1251;25388;-80
2023/04/14 05:35:51;;;;;;;141.00;67.50;;;;;;;;;;108912;1248;25415;-80
2023/04/14 05:38:17;;;;;;;96.60;49.00;;;;;;;;;;108263;1250;23281;-80
2023/04/14 05:40:44;;;;;;;85.80;45.90;;;;;;;;;;108459;1250;23066;-80
2023/04/14 05:43:10;;;;;;;87.40;45.20;;;;;;;;;;108377;1250;22579;-80
2023/04/14 05:45:36;;;;;;;84.80;44.20;;;;;;;;;;108595;1248;22563;-80
2023/04/14 05:48:03;;;;;;;73.20;43.90;;;;;;;;;;109111;1248;22543;-78
2023/04/14 05:50:29;;;;;;;54.70;37.20;;;;;;;;;;108113;1251;23288;-81
2023/04/14 05:52:56;;;;;;;52.10;33.20;;;;;;;;;;108155;1250;22552;-80
2023/04/14 05:55:22;;;;;;;40.90;26.40;;;;;;;;;;107894;1248;23215;-79
2023/04/14 05:57:48;;;;;;;46.50;28.40;;;;;;;;;;107866;1250;22528;-81
2023/04/14 06:00:15;;;;;;;46.70;26.60;;;;;;;;;;108380;1248;22529;-81
2023/04/14 06:02:43;;;;;;;40.60;22.60;;;;;;;;;;108097;1250;22603;-80
2023/04/14 06:05:09;;;;;;;30.50;21.60;;;;;;;;;;108064;1250;22591;-80
2023/04/14 06:07:36;;;;;;;33.40;21.20;;;;;;;;;;107771;1248;22631;-81
2023/04/14 06:10:02;;;;;;;32.40;19.00;;;;;;;;;;107659;1250;22524;-79
2023/04/14 06:12:29;;;;;;;37.60;19.30;;;;;;;;;;107827;1250;24253;-80
2023/04/14 06:14:55;;;;;;;32.20;18.70;;;;;;;;;;110348;1249;25295;-77
2023/04/14 06:17:21;;;;;;;30.80;20.60;;;;;;;;;;107744;1249;22640;-80
2023/04/14 06:19:48;;;;;;;32.10;20.40;;;;;;;;;;107935;1250;22633;-80
2023/04/14 06:22:18;;;;;;;36.30;20.70;;;;;;;;;;108864;1249;25375;-78
2023/04/14 06:24:44;;;;;;;32.30;19.80;;;;;;;;;;107889;1251;24277;-80
2023/04/14 06:27:11;;;;;;;31.00;20.20;;;;;;;;;;108409;1250;23466;-80
2023/04/14 06:29:37;;;;;;;30.90;18.90;;;;;;;;;;109203;1248;25490;-79
2023/04/14 06:32:04;;;;;;;30.40;18.60;;;;;;;;;;108845;1250;22563;-81
2023/04/14 06:34:30;;;;;;;33.30;20.40;;;;;;;;;;108297;1249;22635;-80
2023/04/14 06:36:57;;;;;;;32.00;17.60;;;;;;;;;;108264;1249;22533;-80
2023/04/14 06:39:24;;;;;;;25.80;17.40;;;;;;;;;;108698;1248;22749;-80
2023/04/14 06:41:50;;;;;;;30.80;18.10;;;;;;;;;;108693;1250;23071;-79
2023/04/14 06:44:17;;;;;;;26.00;17.00;;;;;;;;;;108888;1250;22552;-80
2023/04/14 06:46:43;;;;;;;86.10;53.60;;;;;;;;;;108649;1249;22535;-81
2023/04/14 06:49:10;;;;;;;69.10;53.80;;;;;;;;;;108740;1250;23114;-80
2023/04/14 06:51:37;;;;;;;29.20;21.90;;;;;;;;;;108734;1249;23299;-77
2023/04/14 06:54:04;;;;;;;32.70;20.70;;;;;;;;;;107737;1248;22536;-81
2023/04/14 06:56:30;;;;;;;39.20;24.70;;;;;;;;;;107667;1250;24359;-78
2023/04/14 06:58:56;;;;;;;31.50;20.10;;;;;;;;;;107649;1252;22527;-79
2023/04/14 07:01:23;;;;;;;25.30;18.90;;;;;;;;;;108519;1250;22567;-79
2023/04/14 07:03:49;;;;;;;38.80;26.50;;;;;;;;;;107644;1250;24165;-80
2023/04/14 07:06:16;;;;;;;28.50;20.30;;;;;;;;;;107632;1250;22614;-79
2023/04/14 07:08:42;;;;;;;25.30;18.10;;;;;;;;;;107661;1248;25479;-80
2023/04/14 07:11:09;;;;;;;28.70;20.10;;;;;;;;;;107737;1250;22517;-79
2023/04/14 07:13:36;;;;;;;28.10;22.10;;;;;;;;;;107861;1250;22645;-81
2023/04/14 07:16:02;;;;;;;33.20;24.50;;;;;;;;;;107802;1250;23627;-80
2023/04/14 07:18:30;;;;;;;33.70;25.40;;;;;;;;;;108018;1250;22553;-80
2023/04/14 07:20:57;;;;;;;17.80;13.50;;;;;;;;;;107961;1250;25386;-80
2023/04/14 07:23:24;;;;;;;20.10;14.30;;;;;;;;;;108420;1252;24917;-81
2023/04/14 07:25:51;;;;;;;18.20;11.90;;;;;;;;;;108602;1249;22534;-80
2023/04/14 07:28:18;;;;;;;18.00;12.50;;;;;;;;;;108726;1250;24277;-80
2023/04/14 07:30:45;;;;;;;31.30;26.60;;;;;;;;;;108528;1250;23279;-78
2023/04/14 07:33:11;;;;;;;16.30;11.40;;;;;;;;;;107907;1252;25970;-77
2023/04/14 07:35:38;;;;;;;20.80;14.00;;;;;;;;;;107824;1250;22539;-78
2023/04/14 07:38:04;;;;;;;28.60;15.60;;;;;;;;;;107657;1250;22522;-78
2023/04/14 07:40:30;;;;;;;22.70;16.40;;;;;;;;;;107715;1250;25507;-77
2023/04/14 07:42:57;;;;;;;14.80;11.00;;;;;;;;;;107710;1250;24206;-77
2023/04/14 07:45:23;;;;;;;14.80;10.70;;;;;;;;;;107743;1248;22563;-79
2023/04/14 07:47:51;;;;;;;19.10;11.70;;;;;;;;;;108378;1249;22723;-81
2023/04/14 07:50:17;;;;;;;26.30;13.20;;;;;;;;;;108416;1248;23402;-81
2023/04/14 07:52:43;;;;;;;17.40;12.00;;;;;;;;;;108366;1249;22635;-80
2023/04/14 07:55:10;;;;;;;16.80;11.60;;;;;;;;;;108534;1249;23426;-80
2023/04/14 07:57:36;;;;;;;29.60;23.30;;;;;;;;;;108300;1250;22636;-79
2023/04/14 08:00:03;;;;;;;25.00;16.40;;;;;;;;;;108335;1249;22532;-80
2023/04/14 08:02:30;;;;;;;19.90;15.70;;;;;;;;;;108372;1250;25428;-79
2023/04/14 08:04:57;;;;;;;22.10;13.90;;;;;;;;;;108240;1250;22522;-80
2023/04/14 08:07:23;;;;;;;17.20;11.80;;;;;;;;;;108404;1252;22539;-81
2023/04/14 08:09:49;;;;;;;13.40;9.70;;;;;;;;;;108422;1248;24300;-79
2023/04/14 08:12:16;;;;;;;16.40;10.30;;;;;;;;;;108464;1250;22570;-80
2023/04/14 08:14:42;;;;;;;18.50;11.70;;;;;;;;;;108318;1250;22834;-80
2023/04/14 08:17:08;;;;;;;22.10;10.80;;;;;;;;;;108445;1248;24557;-81
2023/04/14 08:19:35;;;;;;;13.10;9.60;;;;;;;;;;108662;1249;22523;-79
2023/04/14 08:22:02;;;;;;;22.20;10.70;;;;;;;;;;108474;1248;22525;-80
2023/04/14 08:24:28;;;;;;;17.40;10.40;;;;;;;;;;108349;1250;22522;-80
2023/04/14 08:26:55;;;;;;;18.80;10.60;;;;;;;;;;108445;1250;22549;-81
2023/04/14 08:29:21;;;;;;;14.20;10.50;;;;;;;;;;108510;1250;23930;-79
2023/04/14 08:31:48;;;;;;;17.00;10.50;;;;;;;;;;108661;1250;25318;-81
2023/04/14 08:34:14;;;;;;;14.10;8.60;;;;;;;;;;108595;1248;22567;-80
2023/04/14 08:36:41;;;;;;;10.40;7.60;;;;;;;;;;108624;1252;22536;-80
2023/04/14 08:39:07;;;;;;;14.80;8.60;;;;;;;;;;108636;1251;22514;-79
2023/04/14 08:41:34;;;;;;;16.70;9.00;;;;;;;;;;108656;1250;22925;-80
2023/04/14 08:44:00;;;;;;;21.40;8.30;;;;;;;;;;108495;1250;23150;-79
2023/04/14 08:46:27;;;;;;;11.70;8.20;;;;;;;;;;108413;1250;24375;-80
2023/04/14 08:48:56;;;;;;;17.80;8.50;;;;;;;;;;108517;1250;25366;-80
2023/04/14 08:51:37;;;;;;;11.70;7.70;;;;;;;;;;108705;1249;22575;-80
2023/04/14 08:54:04;;;;;;;13.30;7.40;;;;;;;;;;108650;1249;22756;-79
2023/04/14 08:56:32;;;;;;;11.40;7.10;;;;;;;;;;108475;1253;22582;-80
2023/04/14 08:59:00;;;;;;;18.20;6.40;;;;;;;;;;108592;1249;22610;-79
2023/04/14 09:01:27;;;;;;;13.70;6.90;;;;;;;;;;108528;1249;22598;-79
2023/04/14 09:03:54;;;;;;;14.60;7.40;;;;;;;;;;108547;1250;22511;-81
2023/04/14 09:06:21;;;;;;;13.10;6.60;;;;;;;;;;108640;1248;25271;-79
2023/04/14 09:08:47;;;;;;;15.60;8.50;;;;;;;;;;108549;1250;22837;-79
2023/04/14 09:11:14;;;;;;;10.80;7.90;;;;;;;;;;108672;1249;25648;-79
2023/04/14 09:13:41;;;;;;;10.50;7.00;;;;;;;;;;108914;1251;22654;-80
2023/04/14 09:16:07;;;;;;;11.30;6.80;;;;;;;;;;107952;1252;23370;-80
2023/04/14 09:18:33;;;;;;;11.80;7.90;;;;;;;;;;107892;1252;22546;-79
2023/04/14 09:21:00;;;;;;;18.40;10.10;;;;;;;;;;107977;1251;22517;-80
2023/04/14 09:23:26;;;;;;;19.40;10.50;;;;;;;;;;107880;1250;23008;-79
2023/04/14 09:25:53;;;;;;;16.60;9.70;;;;;;;;;;107907;1250;23276;-79
2023/04/14 09:28:19;;;;;;;11.30;7.90;;;;;;;;;;108163;1250;22530;-79
2023/04/14 09:30:46;;;;;;;10.50;6.90;;;;;;;;;;108133;1251;22583;-80
2023/04/14 09:33:18;;;;;;;15.00;9.40;;;;;;;;;;107896;1252;22537;-79
2023/04/14 09:35:46;;;;;;;11.40;7.70;;;;;;;;;;110361;1249;22834;-79
2023/04/14 09:38:12;;;;;;;22.50;8.30;;;;;;;;;;108221;1252;22544;-79
2023/04/14 09:40:40;;;;;;;11.20;6.80;;;;;;;;;;108018;1250;23001;-79
2023/04/14 09:43:07;;;;;;;26.60;8.10;;;;;;;;;;108073;1250;22597;-79
2023/04/14 09:45:43;;;;;;;9.70;6.40;;;;;;;;;;107916;1250;24242;-79
2023/04/14 09:48:11;;;;;;;9.40;4.70;;;;;;;;;;107797;1253;24366;-80
2023/04/14 09:50:57;;;;;;;6.30;4.30;;;;;;;;;;107802;1252;24223;-79
2023/04/14 09:53:24;;;;;;;8.30;5.00;;;;;;;;;;107749;1250;22538;-80
2023/04/14 09:55:51;;;;;;;9.50;5.80;;;;;;;;;;107716;1252;22952;-80
2023/04/14 09:58:20;;;;;;;14.90;10.90;;;;;;;;;;107702;1252;24187;-79
2023/04/14 10:00:48;;;;;;;7.50;4.90;;;;;;;;;;107633;1253;25430;-79
2023/04/14 10:03:14;;;;;;;9.70;4.10;;;;;;;;;;107775;1250;24227;-79
2023/04/14 10:05:44;;;;;;;7.80;5.30;;;;;;;;;;107663;1252;22522;-80
2023/04/14 10:08:10;;;;;;;10.70;5.60;;;;;;;;;;107700;1250;22580;-79
2023/04/14 10:10:37;;;;;;;6.50;4.10;;;;;;;;;;107682;1251;22524;-79
2023/04/14 10:13:03;;;;;;;7.80;5.00;;;;;;;;;;107742;1252;22533;-79
2023/04/14 10:15:30;;;;;;;5.80;3.90;;;;;;;;;;107658;1248;22525;-79
2023/04/14 10:17:56;;;;;;;5.00;3.80;;;;;;;;;;107815;1252;23667;-78
2023/04/14 10:20:23;;;;;;;5.40;3.50;;;;;;;;;;107848;1251;22525;-79
2023/04/14 10:22:50;;;;;;;5.80;3.40;;;;;;;;;;107945;1252;25348;-79
2023/04/14 10:25:17;;;;;;;5.00;3.90;;;;;;;;;;107802;1252;22683;-80
2023/04/14 10:27:44;;;;;;;10.60;4.00;;;;;;;;;;107808;1252;26074;-79
2023/04/14 10:30:10;;;;;;;5.50;3.40;;;;;;;;;;107808;1250;23933;-79
2023/04/14 10:32:37;;;;;;;4.80;3.20;;;;;;;;;;107797;1253;22547;-79
2023/04/14 10:35:09;;;;;;;8.60;4.00;;;;;;;;;;107701;1252;22537;-80
2023/04/14 10:37:36;;;;;;;5.10;3.20;;;;;;;;;;107654;1252;23225;-80
2023/04/14 10:40:04;;;;;;;5.20;3.30;;;;;;;;;;107673;1248;22531;-79
2023/04/14 10:42:49;;;;;;;5.00;3.80;;;;;;;;;;107663;1248;24117;-78
2023/04/14 10:45:15;;;;;;;4.70;3.50;;;;;;;;;;107662;1251;25309;-79
2023/04/14 10:47:42;;;;;;;7.70;6.00;;;;;;;;;;107675;1252;22523;-78
2023/04/14 10:50:18;;;;;;;5.00;3.40;;;;;;;;;;107677;1254;23634;-79
2023/04/14 10:52:49;;;;;;;4.50;3.10;;;;;;;;;;107665;1253;22544;-78
2023/04/14 10:55:15;;;;;;;4.70;3.20;;;;;;;;;;107722;1254;24218;-78
2023/04/14 10:57:42;;;;;;;5.60;3.80;;;;;;;;;;107822;1252;24228;-79
2023/04/14 11:00:25;;;;;;;5.80;3.80;;;;;;;;;;108606;1249;23150;-79
2023/04/14 11:03:04;;;;;;;5.10;3.00;;;;;;;;;;110752;1251;22475;-79
2023/04/14 11:05:31;;;;;;;4.50;3.40;;;;;;;;;;107728;1253;22632;-78
2023/04/14 11:07:57;;;;;;;7.20;5.80;;;;;;;;;;107664;1252;23332;-79
2023/04/14 11:10:24;;;;;;;6.10;3.90;;;;;;;;;;108017;1253;22525;-79
2023/04/14 11:12:55;;;;;;;4.80;3.50;;;;;;;;;;107738;1252;22625;-79
2023/04/14 11:15:21;;;;;;;6.80;3.20;;;;;;;;;;107707;1250;24371;-79
2023/04/14 11:17:48;;;;;;;7.80;3.20;;;;;;;;;;107745;1253;25760;-80
2023/04/14 11:20:18;;;;;;;5.10;3.60;;;;;;;;;;107863;1251;24823;-79
2023/04/14 11:22:46;;;;;;;5.00;3.30;;;;;;;;;;108038;1251;22610;-80
2023/04/14 11:25:16;;;;;;;5.00;3.30;;;;;;;;;;107763;1252;22533;-79
2023/04/14 11:27:43;;;;;;;7.80;3.50;;;;;;;;;;107866;1250;25300;-79
2023/04/14 11:30:13;;;;;;;8.30;4.20;;;;;;;;;;107911;1250;22527;-78
2023/04/14 11:32:49;;;;;;;4.90;3.30;;;;;;;;;;107714;1248;25502;-80
2023/04/14 11:35:16;;;;;;;5.90;4.20;;;;;;;;;;107705;1253;22533;-79
2023/04/14 11:37:43;;;;;;;4.90;3.30;;;;;;;;;;107777;1249;22609;-79
2023/04/14 11:40:10;;;;;;;6.60;3.40;;;;;;;;;;107883;1251;22533;-79
2023/04/14 11:42:37;;;;;;;4.70;3.40;;;;;;;;;;108144;1249;22635;-79
2023/04/14 11:45:04;;;;;;;7.00;3.50;;;;;;;;;;108396;1250;22542;-79
2023/04/14 11:47:30;;;;;;;5.90;3.90;;;;;;;;;;107761;1252;22630;-79
2023/04/14 11:50:00;;;;;;;8.00;7.20;;;;;;;;;;108059;1252;23264;-80
2023/04/14 11:52:26;;;;;;;7.80;4.50;;;;;;;;;;107978;1249;22536;-79
2023/04/14 11:54:52;;;;;;;7.20;4.50;;;;;;;;;;107818;1251;22545;-79
2023/04/14 11:57:19;;;;;;;11.10;4.30;;;;;;;;;;108113;1249;22538;-78
2023/04/14 11:59:45;;;;;;;10.00;4.90;;;;;;;;;;108542;1252;25300;-79
2023/04/14 12:02:15;;;;;;;9.90;5.90;;;;;;;;;;108609;1251;23408;-80
2023/04/14 12:04:45;;;;;;;4.80;4.20;;;;;;;;;;108316;1248;23016;-79
2023/04/14 12:07:12;;;;;;;7.00;4.20;;;;;;;;;;107885;1252;22624;-79
2023/04/14 12:09:39;;;;;;;11.40;5.40;;;;;;;;;;107936;1251;22774;-79
2023/04/14 12:12:12;;;;;;;9.70;4.40;;;;;;;;;;108283;1248;23465;-80
2023/04/14 12:14:39;;;;;;;9.00;5.50;;;;;;;;;;107983;1249;22956;-79
2023/04/14 12:17:06;;;;;;;9.30;6.20;;;;;;;;;;107962;1251;25324;-79
2023/04/14 12:19:33;;;;;;;10.30;5.30;;;;;;;;;;108019;1251;22573;-79
2023/04/14 12:22:00;;;;;;;18.10;7.80;;;;;;;;;;108067;1253;22542;-78
2023/04/14 12:24:41;;;;;;;7.10;4.50;;;;;;;;;;107801;1248;22551;-79
2023/04/14 12:27:08;;;;;;;7.40;5.80;;;;;;;;;;107821;1250;23909;-80
2023/04/14 12:29:35;;;;;;;5.30;4.50;;;;;;;;;;107853;1252;26250;-79
2023/04/14 12:32:03;;;;;;;10.70;5.20;;;;;;;;;;107912;1251;22652;-79
2023/04/14 12:34:30;;;;;;;10.60;5.50;;;;;;;;;;107980;1251;22551;-80
2023/04/14 12:36:56;;;;;;;7.60;4.00;;;;;;;;;;108220;1251;22961;-80
2023/04/14 12:39:24;;;;;;;12.50;9.00;;;;;;;;;;107948;1251;22654;-79
2023/04/14 12:41:50;;;;;;;6.00;4.30;;;;;;;;;;108421;1248;24402;-81
2023/04/14 12:44:18;;;;;;;18.40;5.30;;;;;;;;;;108235;1251;25402;-81
2023/04/14 12:46:48;;;;;;;16.00;4.50;;;;;;;;;;108338;1248;23985;-79
2023/04/14 12:49:31;;;;;;;6.40;4.20;;;;;;;;;;109977;1251;22597;-78
2023/04/14 12:51:57;;;;;;;5.60;4.10;;;;;;;;;;108071;1253;23387;-78
2023/04/14 12:54:23;;;;;;;8.10;4.70;;;;;;;;;;107770;1251;25454;-78
2023/04/14 12:56:50;;;;;;;8.70;4.60;;;;;;;;;;108251;1251;22541;-78
2023/04/14 12:59:16;;;;;;;6.70;4.60;;;;;;;;;;107859;1248;22573;-81
2023/04/14 13:01:42;;;;;;;16.30;8.20;;;;;;;;;;108015;1249;22991;-78
2023/04/14 13:04:09;;;;;;;6.10;4.10;;;;;;;;;;107906;1251;25506;-78
2023/04/14 13:06:36;;;;;;;13.70;7.10;;;;;;;;;;107767;1251;23101;-81
2023/04/14 13:09:02;;;;;;;4.70;3.70;;;;;;;;;;107824;1252;22539;-81
2023/04/14 13:11:30;;;;;;;7.10;4.10;;;;;;;;;;107815;1251;25390;-80
2023/04/14 13:13:56;;;;;;;8.00;4.40;;;;;;;;;;107734;1250;25455;-79
2023/04/14 13:16:22;;;;;;;5.00;3.00;;;;;;;;;;107752;1251;25794;-80
2023/04/14 13:18:49;;;;;;;6.40;3.80;;;;;;;;;;107724;1248;22531;-80
2023/04/14 13:21:15;;;;;;;7.40;5.00;;;;;;;;;;107822;1250;22530;-80
2023/04/14 13:23:42;;;;;;;11.50;7.90;;;;;;;;;;107814;1251;22525;-80
2023/04/14 13:26:08;;;;;;;7.80;4.00;;;;;;;;;;107776;1252;22542;-80
2023/04/14 13:28:35;;;;;;;5.20;3.40;;;;;;;;;;107746;1252;22521;-78
2023/04/14 13:31:02;;;;;;;7.30;3.90;;;;;;;;;;107890;1251;25388;-79
2023/04/14 13:33:28;;;;;;;5.40;4.10;;;;;;;;;;107762;1251;22544;-80
2023/04/14 13:35:55;;;;;;;10.20;4.30;;;;;;;;;;107804;1251;23952;-78
2023/04/14 13:38:21;;;;;;;8.60;4.00;;;;;;;;;;107990;1247;23784;-80
2023/04/14 13:40:48;;;;;;;6.80;5.10;;;;;;;;;;107878;1249;25306;-79
2023/04/14 13:43:14;;;;;;;6.70;4.70;;;;;;;;;;107806;1251;22903;-79
2023/04/14 13:45:41;;;;;;;6.10;3.80;;;;;;;;;;107825;1250;22583;-79
2023/04/14 13:48:07;;;;;;;33.80;7.10;;;;;;;;;;107748;1249;22522;-80
2023/04/14 13:50:33;;;;;;;6.10;4.10;;;;;;;;;;107772;1252;22972;-79
2023/04/14 13:53:00;;;;;;;6.70;4.10;;;;;;;;;;107819;1253;22543;-79
2023/04/14 13:55:26;;;;;;;5.20;3.50;;;;;;;;;;107894;1248;23316;-79
2023/04/14 13:57:53;;;;;;;9.70;4.90;;;;;;;;;;107747;1250;25311;-79
2023/04/14 14:00:19;;;;;;;6.30;4.70;;;;;;;;;;107689;1253;155637;-80
2023/04/14 14:02:45;;;;;;;6.60;4.00;;;;;;;;;;107917;1251;23282;-80
2023/04/14 14:05:13;;;;;;;7.20;3.70;;;;;;;;;;107926;1252;22698;-79
2023/04/14 14:07:39;;;;;;;4.80;3.60;;;;;;;;;;107914;1251;22531;-80
2023/04/14 14:10:09;;;;;;;8.30;3.90;;;;;;;;;;107925;1253;26009;-79
2023/04/14 14:12:35;;;;;;;9.50;4.40;;;;;;;;;;108107;1253;22574;-80
2023/04/14 14:15:02;;;;;;;5.00;3.30;;;;;;;;;;107905;1251;24218;-79